Time;durP1;ratioP1;P1;durP2;ratioP2;P2;SDS_P1;SDS_P2;PMS_P1;PMS_P2;Temp;Humidity;BMP_temperature;BMP_pressure;BME280_temperature;BME280_humidity;BME280_pressure;Samples;Min_cycle;Max_cycle;Signal;HPM_P1;HPM_P2
2022/05/15 00:01:48;;;;;;;18.92;7.05;;;;;;;12.66;66.89;101932.94;5022093;28;20132;-78
2022/05/15 00:04:14;;;;;;;17.95;7.22;;;;;;;12.61;67.99;101929.63;5034262;28;20061;-71
2022/05/15 00:06:39;;;;;;;19.42;6.30;;;;;;;12.58;67.53;101935.25;5018684;28;20127;-70
2022/05/15 00:09:05;;;;;;;18.65;7.05;;;;;;;12.57;67.47;101935.38;5044575;28;20471;-78
2022/05/15 00:11:30;;;;;;;22.67;6.95;;;;;;;12.54;67.79;101938.28;5025682;28;20029;-78
2022/05/15 00:14:02;;;;;;;19.75;6.25;;;;;;;12.51;67.01;101934.78;5020558;28;20044;-78
2022/05/15 00:16:29;;;;;;;17.13;7.22;;;;;;;12.50;67.03;101932.16;5007872;28;20030;-75
2022/05/15 00:18:54;;;;;;;14.85;6.30;;;;;;;12.50;67.94;101935.75;5032192;28;20044;-70
2022/05/15 00:21:19;;;;;;;14.85;5.80;;;;;;;12.46;68.46;101930.59;5015673;28;20034;-73
2022/05/15 00:23:45;;;;;;;17.50;6.55;;;;;;;12.44;68.11;101930.66;5022154;28;20041;-76
2022/05/15 00:26:10;;;;;;;23.80;6.85;;;;;;;12.36;68.46;101930.31;5052486;28;20484;-70
2022/05/15 00:28:36;;;;;;;29.83;9.35;;;;;;;12.30;68.46;101927.94;5052075;28;20025;-71
2022/05/15 00:31:03;;;;;;;17.38;6.63;;;;;;;12.29;68.71;101918.00;5032328;28;20038;-78
2022/05/15 00:33:29;;;;;;;24.55;7.95;;;;;;;12.20;69.12;101916.72;5031851;28;20026;-70
2022/05/15 00:35:54;;;;;;;23.45;7.70;;;;;;;12.20;69.44;101919.44;5045942;28;20025;-79
2022/05/15 00:38:21;;;;;;;20.33;6.45;;;;;;;12.14;68.57;101916.22;5035318;28;20044;-70
2022/05/15 00:40:48;;;;;;;20.98;6.90;;;;;;;12.11;69.45;101922.75;5038721;28;20420;-72
2022/05/15 00:43:43;;;;;;;21.63;6.75;;;;;;;12.12;68.76;101918.16;5045334;28;20043;-77
2022/05/15 00:46:16;;;;;;;22.05;7.40;;;;;;;12.08;68.73;101912.03;5040094;28;20046;-71
2022/05/15 00:48:42;;;;;;;24.20;7.80;;;;;;;12.02;69.06;101919.69;5025307;28;20484;-79
2022/05/15 00:51:31;;;;;;;22.23;7.93;;;;;;;11.98;68.85;101911.72;5033425;28;20021;-78
2022/05/15 00:54:11;;;;;;;19.77;7.32;;;;;;;11.94;70.05;101918.34;5052023;28;20454;-70
2022/05/15 00:56:42;;;;;;;18.83;6.30;;;;;;;11.92;69.31;101914.81;5028889;28;20045;-70
2022/05/15 00:59:12;;;;;;;22.52;7.18;;;;;;;11.90;69.60;101913.16;5050567;28;20028;-71
2022/05/15 01:01:38;;;;;;;18.33;6.88;;;;;;;11.86;70.76;101907.00;5020625;28;20034;-78
2022/05/15 01:04:04;;;;;;;20.33;6.95;;;;;;;11.83;69.97;101911.78;5031948;28;20369;-70
2022/05/15 01:06:30;;;;;;;20.30;6.53;;;;;;;11.78;70.56;101909.28;5051106;28;20032;-71
2022/05/15 01:09:00;;;;;;;19.83;6.32;;;;;;;11.75;70.69;101909.50;5038497;28;20143;-71
2022/05/15 01:11:25;;;;;;;20.95;6.68;;;;;;;11.68;72.78;101908.09;5040917;28;20040;-78
2022/05/15 01:13:52;;;;;;;15.52;5.90;;;;;;;11.71;70.30;101916.09;5046787;28;20025;-78
2022/05/15 01:16:23;;;;;;;21.23;5.80;;;;;;;11.69;70.48;101910.72;5035112;28;20033;-70
2022/05/15 01:18:53;;;;;;;14.02;5.88;;;;;;;11.66;71.18;101907.31;5039839;28;20392;-71
2022/05/15 01:21:30;;;;;;;20.55;6.28;;;;;;;11.65;70.89;101925.50;5052677;28;20032;-71
2022/05/15 01:24:00;;;;;;;18.77;6.60;;;;;;;11.61;72.62;101913.03;5032628;28;20030;-78
2022/05/15 01:26:29;;;;;;;16.58;6.90;;;;;;;11.59;71.85;101917.69;5051527;28;20032;-79
2022/05/15 01:28:54;;;;;;;20.35;6.70;;;;;;;11.52;72.47;101919.03;5017116;28;20408;-78
2022/05/15 01:31:22;;;;;;;18.33;6.32;;;;;;;11.47;72.52;101912.97;5031401;28;20108;-77
2022/05/15 01:33:49;;;;;;;24.08;5.95;;;;;;;11.46;72.59;101922.09;5036755;28;20033;-71
2022/05/15 01:36:18;;;;;;;17.75;6.85;;;;;;;11.41;72.15;101924.22;5048968;28;20024;-71
2022/05/15 01:38:43;;;;;;;16.55;6.43;;;;;;;11.36;72.87;101923.63;5023107;28;20065;-74
2022/05/15 01:41:12;;;;;;;12.32;5.72;;;;;;;11.36;72.00;101921.78;5043703;28;20068;-71
2022/05/15 01:43:43;;;;;;;15.52;5.85;;;;;;;11.35;72.80;101914.56;5025468;28;20526;-71
2022/05/15 01:46:10;;;;;;;17.95;5.82;;;;;;;11.34;73.49;101909.22;5020718;28;20041;-70
2022/05/15 01:48:36;;;;;;;20.63;5.82;;;;;;;11.30;72.60;101911.25;5028883;28;20025;-70
2022/05/15 01:51:02;;;;;;;20.88;5.82;;;;;;;11.30;71.86;101911.25;5050840;28;20029;-77
2022/05/15 01:53:28;;;;;;;21.65;5.85;;;;;;;11.29;71.75;101914.94;5034277;28;20033;-70
2022/05/15 01:55:54;;;;;;;25.88;6.55;;;;;;;11.23;72.79;101912.56;5011488;28;20046;-70
2022/05/15 01:58:19;;;;;;;19.63;6.05;;;;;;;11.21;72.96;101912.66;5043757;28;20041;-72
2022/05/15 02:00:45;;;;;;;16.85;6.32;;;;;;;11.14;74.81;101905.78;5048407;28;20028;-71
2022/05/15 02:03:10;;;;;;;19.65;5.80;;;;;;;11.10;73.41;101912.41;5025714;28;20029;-70
2022/05/15 02:05:36;;;;;;;23.15;6.13;;;;;;;11.11;73.56;101908.72;5041071;28;20037;-78
2022/05/15 02:08:02;;;;;;;14.20;5.95;;;;;;;11.10;72.92;101912.41;5050436;28;20052;-70
2022/05/15 02:10:29;;;;;;;18.67;6.03;;;;;;;11.05;74.35;101903.63;5038803;28;20091;-79
2022/05/15 02:12:54;;;;;;;16.33;5.82;;;;;;;10.98;74.00;101894.91;5034581;28;20060;-79
2022/05/15 02:15:21;;;;;;;31.33;6.78;;;;;;;11.02;73.04;101898.34;5031969;28;20107;-78
2022/05/15 02:17:47;;;;;;;17.50;5.97;;;;;;;10.96;73.91;101893.25;5040800;28;20484;-71
2022/05/15 02:20:13;;;;;;;26.55;6.20;;;;;;;10.97;73.93;101900.47;5050854;28;20083;-70
2022/05/15 02:22:40;;;;;;;22.85;6.40;;;;;;;10.95;74.23;101902.38;5033722;28;20025;-71
2022/05/15 02:25:08;;;;;;;17.90;6.68;;;;;;;10.91;73.86;101900.78;5028784;28;20051;-70
2022/05/15 02:27:39;;;;;;;23.52;5.93;;;;;;;10.89;73.70;101903.59;5036042;28;20401;-79
2022/05/15 02:30:06;;;;;;;23.13;6.20;;;;;;;10.87;73.97;101905.56;5023989;28;20037;-77
2022/05/15 02:32:32;;;;;;;19.02;6.50;;;;;;;10.87;73.83;101905.56;5018856;28;20649;-71
2022/05/15 02:34:57;;;;;;;16.45;6.88;;;;;;;10.84;73.63;101908.44;5028631;28;20090;-71
2022/05/15 02:37:23;;;;;;;18.30;6.15;;;;;;;10.79;75.34;101896.06;5051099;28;20035;-70
2022/05/15 02:39:48;;;;;;;17.63;5.72;;;;;;;10.74;75.23;101901.75;5032144;28;20025;-77
2022/05/15 02:42:14;;;;;;;21.90;5.60;;;;;;;10.68;76.15;101897.53;5045403;28;20037;-72
2022/05/15 02:44:40;;;;;;;13.65;5.53;;;;;;;10.66;75.92;101895.84;5034436;28;20040;-72
2022/05/15 02:47:06;;;;;;;13.77;5.90;;;;;;;10.61;75.73;101890.69;5024418;28;20412;-72
2022/05/15 02:52:15;;;;;;;16.15;6.40;;;;;;;10.55;76.12;101895.59;5049351;28;20034;-71
2022/05/15 02:54:42;;;;;;;19.10;6.32;;;;;;;10.53;76.19;101898.38;5047140;28;20062;-71
2022/05/15 02:57:08;;;;;;;19.65;5.65;;;;;;;10.50;76.12;101898.56;5050910;28;20044;-70
2022/05/15 02:59:34;;;;;;;16.05;6.65;;;;;;;10.48;75.87;101895.91;5050585;28;20120;-78
2022/05/15 03:02:00;;;;;;;19.05;5.90;;;;;;;10.49;75.06;101894.06;5024559;28;20037;-71
2022/05/15 03:04:26;;;;;;;13.98;5.85;;;;;;;10.48;75.32;101890.47;5046019;28;20492;-78
2022/05/15 03:06:52;;;;;;;24.73;6.18;;;;;;;10.43;76.03;101880.81;5051209;28;20021;-71
2022/05/15 03:09:18;;;;;;;22.13;6.50;;;;;;;10.38;76.76;101881.06;5050920;28;20033;-72
2022/05/15 03:11:43;;;;;;;20.10;5.85;;;;;;;10.33;76.42;101872.28;5027762;28;20387;-74
2022/05/15 03:14:09;;;;;;;19.10;5.30;;;;;;;10.36;75.73;101882.13;5037006;28;20108;-79
2022/05/15 03:16:35;;;;;;;14.80;6.00;;;;;;;10.34;75.97;101886.75;5017458;28;20025;-75
2022/05/15 03:19:00;;;;;;;18.85;5.30;;;;;;;10.33;75.74;101885.88;5012399;28;20037;-79
2022/05/15 03:21:29;;;;;;;26.45;6.10;;;;;;;10.33;75.12;101868.69;5042576;28;20104;-79
2022/05/15 03:24:07;;;;;;;17.85;5.63;;;;;;;10.33;75.83;101882.28;5028817;28;20390;-79
2022/05/15 03:26:35;;;;;;;21.83;6.20;;;;;;;10.29;76.03;101878.84;5048709;28;20033;-78
2022/05/15 03:29:02;;;;;;;24.60;7.47;;;;;;;10.26;76.11;101880.84;5045108;28;20021;-71
2022/05/15 03:31:27;;;;;;;17.05;5.10;;;;;;;10.22;77.09;101891.00;5028376;28;20030;-71
2022/05/15 03:33:53;;;;;;;23.33;6.22;;;;;;;10.19;76.60;101874.84;5031153;28;20029;-71
2022/05/15 03:36:19;;;;;;;17.75;5.25;;;;;;;10.15;77.28;101878.69;5022015;28;20026;-71
2022/05/15 03:38:46;;;;;;;17.67;6.07;;;;;;;10.11;76.21;101875.25;5038758;28;20036;-78
2022/05/15 03:41:13;;;;;;;16.55;4.53;;;;;;;10.11;76.52;101879.81;5050111;28;20036;-72
2022/05/15 03:43:38;;;;;;;18.85;6.40;;;;;;;10.03;76.45;101861.22;5032269;28;20041;-72
2022/05/15 03:46:06;;;;;;;17.98;5.38;;;;;;;10.04;75.58;101868.41;5024665;28;20025;-72
2022/05/15 03:48:33;;;;;;;20.00;5.50;;;;;;;10.04;76.14;101872.97;5036908;28;20452;-78
2022/05/15 03:50:59;;;;;;;19.05;6.25;;;;;;;10.03;76.49;101869.38;5041741;28;20040;-72
2022/05/15 03:53:26;;;;;;;20.45;5.97;;;;;;;10.02;76.47;101874.88;5041835;28;20063;-71
2022/05/15 03:55:55;;;;;;;17.50;5.75;;;;;;;10.02;76.74;101873.03;5043702;28;20052;-72
2022/05/15 03:58:26;;;;;;;17.90;7.20;;;;;;;10.00;76.77;101872.25;5049727;28;20499;-79
2022/05/15 04:00:52;;;;;;;17.23;6.10;;;;;;;10.01;77.08;101881.28;5030844;28;20034;-71
2022/05/15 04:03:18;;;;;;;18.30;6.18;;;;;;;10.00;76.70;101871.38;5022877;28;20462;-72
2022/05/15 04:05:44;;;;;;;21.45;5.82;;;;;;;10.01;76.25;101871.28;5048600;28;20033;-77
2022/05/15 04:08:10;;;;;;;17.88;5.70;;;;;;;9.99;76.78;101867.78;5032359;28;20098;-71
2022/05/15 04:10:35;;;;;;;20.48;6.22;;;;;;;9.99;77.68;101869.63;5034097;28;20458;-78
2022/05/15 04:13:01;;;;;;;23.10;5.93;;;;;;;10.02;76.48;101877.59;5039791;28;20034;-78
2022/05/15 04:15:26;;;;;;;25.08;5.72;;;;;;;10.00;76.77;101871.38;5033511;28;20477;-71
2022/05/15 04:17:52;;;;;;;19.30;6.57;;;;;;;10.04;76.37;101881.13;5036121;28;20052;-79
2022/05/15 04:20:24;;;;;;;22.95;5.82;;;;;;;10.06;75.90;101887.34;5048327;28;20037;-79
2022/05/15 04:22:50;;;;;;;20.77;5.65;;;;;;;10.11;75.88;101896.13;5035641;28;20399;-73
2022/05/15 04:25:16;;;;;;;18.80;5.63;;;;;;;10.14;75.58;101883.25;5018613;28;20088;-71
2022/05/15 04:27:42;;;;;;;17.70;5.55;;;;;;;10.16;75.74;101888.59;5045270;28;20476;-78
2022/05/15 04:30:10;;;;;;;15.70;5.18;;;;;;;10.18;76.16;101886.69;5034684;28;20036;-72
2022/05/15 04:32:35;;;;;;;19.17;5.80;;;;;;;10.15;76.09;101890.44;5018910;28;20529;-78
2022/05/15 04:35:01;;;;;;;20.02;5.85;;;;;;;10.20;76.20;101882.91;5049356;28;20037;-76
2022/05/15 04:37:26;;;;;;;27.67;6.68;;;;;;;10.22;76.37;101880.13;5034795;28;20017;-72
2022/05/15 04:39:52;;;;;;;19.52;5.80;;;;;;;10.24;76.38;101878.22;5047980;28;20040;-79
2022/05/15 04:42:17;;;;;;;22.73;5.70;;;;;;;10.28;76.40;101876.22;5049361;28;20534;-71
2022/05/15 04:44:43;;;;;;;21.55;7.10;;;;;;;10.30;76.36;101883.31;5039106;28;20033;-76
2022/05/15 04:47:08;;;;;;;18.98;6.13;;;;;;;10.32;77.20;101875.97;5017304;28;20037;-76
2022/05/15 04:49:34;;;;;;;16.60;5.60;;;;;;;10.35;77.31;101877.63;5024323;28;20041;-71
2022/05/15 04:51:59;;;;;;;17.70;5.60;;;;;;;10.41;75.83;101880.91;5049436;28;20029;-71
2022/05/15 04:54:24;;;;;;;16.27;5.88;;;;;;;10.45;75.78;101879.78;5024323;28;20759;-72
2022/05/15 04:56:50;;;;;;;17.70;6.20;;;;;;;10.49;75.93;101885.91;5028138;28;20030;-77
2022/05/15 04:59:15;;;;;;;16.13;6.80;;;;;;;10.53;76.04;101884.78;5018098;28;20037;-78
2022/05/15 05:01:41;;;;;;;22.85;6.70;;;;;;;10.55;76.30;101873.81;5019583;28;20037;-74
2022/05/15 05:04:06;;;;;;;24.58;7.07;;;;;;;10.57;76.57;101874.59;5030595;28;20041;-72
2022/05/15 05:06:32;;;;;;;17.23;6.55;;;;;;;10.64;76.13;101879.63;5031783;28;20049;-78
2022/05/15 05:08:58;;;;;;;21.42;6.40;;;;;;;10.71;75.65;101880.16;5014529;28;20061;-79
2022/05/15 05:11:23;;;;;;;18.73;7.40;;;;;;;10.76;76.68;101888.06;5031278;28;20552;-72
2022/05/15 05:13:49;;;;;;;25.27;7.40;;;;;;;10.82;75.63;101890.41;5032908;28;20091;-72
2022/05/15 05:16:15;;;;;;;22.75;7.40;;;;;;;10.86;75.83;101897.44;5021539;28;20035;-72
2022/05/15 05:18:40;;;;;;;21.48;7.75;;;;;;;10.90;75.79;101885.41;5021443;28;20489;-78
2022/05/15 05:21:06;;;;;;;22.88;7.22;;;;;;;10.95;75.97;101889.63;5032092;28;20113;-78
2022/05/15 05:23:31;;;;;;;17.58;6.40;;;;;;;10.99;76.38;101888.50;5020477;28;20073;-78
2022/05/15 05:25:57;;;;;;;19.27;7.55;;;;;;;11.06;75.42;101891.75;5029491;28;20082;-78
2022/05/15 05:28:23;;;;;;;24.27;7.45;;;;;;;11.13;75.05;101895.88;5029918;28;20084;-78
2022/05/15 05:30:49;;;;;;;27.23;7.22;;;;;;;11.20;74.48;101888.25;5026680;28;20025;-72
2022/05/15 05:33:14;;;;;;;23.77;7.82;;;;;;;11.24;75.92;101887.09;5015971;28;20069;-72
2022/05/15 05:35:40;;;;;;;15.70;7.00;;;;;;;11.31;75.28;101884.88;5027030;28;20117;-79
2022/05/15 05:38:06;;;;;;;20.50;8.65;;;;;;;11.35;75.86;101879.16;5027401;28;20504;-72
2022/05/15 05:40:32;;;;;;;20.90;7.40;;;;;;;11.46;75.45;101886.69;5020004;28;20049;-71
2022/05/15 05:42:58;;;;;;;27.30;7.25;;;;;;;11.52;75.23;101882.72;5012723;28;20029;-71
2022/05/15 05:45:23;;;;;;;21.95;7.57;;;;;;;11.59;74.23;101893.16;5015237;28;20036;-78
2022/05/15 05:47:50;;;;;;;27.92;7.57;;;;;;;11.66;75.49;101888.25;5001623;28;20099;-72
2022/05/15 05:50:19;;;;;;;20.88;7.35;;;;;;;11.75;75.03;101884.97;5014545;28;20393;-79
2022/05/15 05:52:45;;;;;;;22.98;7.72;;;;;;;11.82;76.34;101888.16;5015702;28;20040;-73
2022/05/15 05:55:13;;;;;;;31.45;8.73;;;;;;;11.85;76.92;101883.44;5028366;28;20050;-73
2022/05/15 05:57:40;;;;;;;21.23;7.78;;;;;;;11.91;75.94;101883.06;5024626;28;20490;-71
2022/05/15 06:00:09;;;;;;;24.88;8.63;;;;;;;12.03;74.86;101889.63;5028570;28;20124;-71
2022/05/15 06:02:37;;;;;;;23.15;8.48;;;;;;;12.11;74.52;101889.13;5027794;28;20041;-79
2022/05/15 06:05:03;;;;;;;19.08;8.50;;;;;;;12.20;75.57;101888.56;5014046;28;20040;-78
2022/05/15 06:07:30;;;;;;;19.30;8.45;;;;;;;12.29;75.24;101884.38;5013210;28;20511;-72
2022/05/15 06:09:55;;;;;;;22.08;8.38;;;;;;;12.40;74.39;101887.28;5030377;28;20114;-71
2022/05/15 06:12:23;;;;;;;20.88;8.85;;;;;;;12.46;74.37;101886.94;5030228;28;20072;-71
2022/05/15 06:14:50;;;;;;;23.00;8.82;;;;;;;12.59;74.74;101885.16;5017591;28;20072;-77
2022/05/15 06:17:20;;;;;;;32.00;11.35;;;;;;;12.70;74.33;101879.88;5012313;28;20033;-78
2022/05/15 06:19:45;;;;;;;28.13;10.73;;;;;;;12.81;74.65;101881.91;5015261;28;20076;-71
2022/05/15 06:22:11;;;;;;;25.40;10.88;;;;;;;12.91;74.90;101879.44;5014334;28;20493;-78
2022/05/15 06:24:36;;;;;;;27.73;10.43;;;;;;;12.98;75.47;101880.81;5012999;28;20037;-78
2022/05/15 06:27:03;;;;;;;23.50;10.18;;;;;;;13.07;75.59;101880.19;5014341;28;20025;-71
2022/05/15 06:29:29;;;;;;;25.92;10.77;;;;;;;13.16;73.75;101874.13;5012814;28;20049;-71
2022/05/15 06:31:54;;;;;;;30.85;10.25;;;;;;;13.32;73.63;101884.06;5014518;28;20034;-77
2022/05/15 06:34:20;;;;;;;23.80;11.15;;;;;;;13.43;73.97;101881.44;5018548;28;20477;-76
2022/05/15 06:36:45;;;;;;;24.33;10.88;;;;;;;13.56;73.76;101881.50;5011039;28;20029;-71
2022/05/15 06:39:11;;;;;;;22.85;11.05;;;;;;;13.65;73.51;101873.53;5015950;28;20045;-70
2022/05/15 06:41:37;;;;;;;26.45;11.35;;;;;;;13.75;73.86;101876.50;5014000;28;20168;-71
2022/05/15 06:44:03;;;;;;;22.27;11.25;;;;;;;13.83;72.89;101878.72;5022485;28;20496;-78
2022/05/15 06:46:29;;;;;;;23.58;11.63;;;;;;;13.94;73.06;101879.75;5019564;28;20570;-71
2022/05/15 06:48:54;;;;;;;25.35;11.48;;;;;;;14.04;72.28;101878.13;5018611;28;20444;-78
2022/05/15 06:51:20;;;;;;;21.70;10.43;;;;;;;14.12;71.70;101874.81;5015908;28;20489;-77
2022/05/15 06:53:47;;;;;;;21.17;12.68;;;;;;;14.28;72.63;101874.63;4977123;28;118072;-72
2022/05/15 06:58:58;;;;;;;30.42;12.10;;;;;;;14.56;72.24;101876.25;4989981;28;20042;-79
2022/05/15 07:01:23;;;;;;;20.25;10.60;;;;;;;14.66;70.73;101871.00;4991926;28;20049;-77
2022/05/15 07:03:49;;;;;;;22.90;11.70;;;;;;;14.78;70.91;101881.03;4991267;28;20046;-78
2022/05/15 07:06:15;;;;;;;20.42;12.07;;;;;;;14.89;71.12;101872.03;5013839;28;20399;-71
2022/05/15 07:08:41;;;;;;;34.75;12.45;;;;;;;14.98;70.74;101880.44;5009890;28;20044;-78
2022/05/15 07:11:06;;;;;;;31.13;12.98;;;;;;;15.19;68.89;101888.03;5004675;28;20034;-78
2022/05/15 07:13:32;;;;;;;21.38;11.23;;;;;;;15.39;68.50;101884.69;5010676;28;20038;-71
2022/05/15 07:15:58;;;;;;;26.13;10.98;;;;;;;15.61;68.28;101880.28;5009310;28;20489;-77
2022/05/15 07:18:24;;;;;;;23.02;12.13;;;;;;;15.77;67.47;101883.63;5006570;28;20085;-70
2022/05/15 07:20:51;;;;;;;22.73;11.32;;;;;;;15.99;67.40;101883.69;5024495;28;20079;-77
2022/05/15 07:23:17;;;;;;;24.73;11.10;;;;;;;16.13;66.32;101884.47;5030048;28;20043;-74
2022/05/15 07:25:42;;;;;;;27.45;12.25;;;;;;;16.26;66.67;101883.34;5025602;28;20033;-70
2022/05/15 07:28:07;;;;;;;21.25;10.93;;;;;;;16.36;65.49;101896.34;5029324;28;20042;-70
2022/05/15 07:30:33;;;;;;;21.58;11.43;;;;;;;16.43;64.31;101886.63;5014507;28;20038;-70
2022/05/15 07:32:58;;;;;;;26.63;11.70;;;;;;;16.51;64.24;101887.78;5011632;28;20046;-70
2022/05/15 07:35:24;;;;;;;27.15;10.90;;;;;;;16.60;65.81;101891.66;5008932;28;20038;-71
2022/05/15 07:37:50;;;;;;;21.30;11.75;;;;;;;16.67;63.50;101883.78;5001949;28;20069;-77
2022/05/15 07:40:15;;;;;;;23.75;12.02;;;;;;;16.75;63.87;101884.06;4992146;28;20062;-77
2022/05/15 07:42:43;;;;;;;21.98;11.43;;;;;;;16.87;63.16;101884.91;5002689;28;20124;-70
2022/05/15 07:45:09;;;;;;;25.02;11.35;;;;;;;16.98;62.97;101876.66;4990708;28;20167;-78
2022/05/15 07:47:34;;;;;;;22.48;10.95;;;;;;;17.08;62.83;101874.88;4999278;28;20489;-78
2022/05/15 07:50:00;;;;;;;23.88;12.45;;;;;;;17.20;61.73;101875.72;4989449;28;20042;-71
2022/05/15 07:52:25;;;;;;;24.17;11.55;;;;;;;17.40;63.34;101880.44;5005422;28;20037;-71
2022/05/15 07:54:51;;;;;;;24.02;11.35;;;;;;;17.67;62.94;101870.81;4992220;28;20046;-71
2022/05/15 07:57:17;;;;;;;24.33;11.73;;;;;;;18.24;61.21;101881.41;4990568;28;20046;-78
2022/05/15 07:59:42;;;;;;;21.08;11.30;;;;;;;19.01;57.86;101877.28;4992074;28;20045;-73
2022/05/15 08:02:08;;;;;;;18.95;10.73;;;;;;;19.82;58.47;101869.72;4977102;28;20041;-78
2022/05/15 08:08:00;;;;;;;19.05;9.70;;;;;;;20.59;56.30;101874.22;4995700;28;20037;-73
2022/05/15 08:10:05;;;;;;;20.58;10.73;;;;;;;21.65;48.62;101870.84;5003201;28;20029;-69
2022/05/15 08:12:30;;;;;;;20.45;10.77;;;;;;;21.92;49.37;101860.72;5003005;28;20112;-77
2022/05/15 08:14:56;;;;;;;19.75;9.63;;;;;;;22.41;48.64;101861.94;5004946;28;20508;-70
2022/05/15 08:17:21;;;;;;;20.42;10.30;;;;;;;23.00;46.34;101864.03;4991436;28;20034;-77
2022/05/15 08:25:19;;;;;;;17.58;8.75;;;;;;;24.35;44.11;101847.84;4995361;28;20026;-71
2022/05/15 08:27:44;;;;;;;17.40;9.20;;;;;;;24.57;42.35;101846.22;5006217;28;20116;-70
2022/05/15 08:30:10;;;;;;;20.75;9.73;;;;;;;25.01;43.85;101837.38;5003668;28;20038;-69
2022/05/15 08:32:35;;;;;;;21.42;9.68;;;;;;;25.22;41.11;101836.75;4994853;28;20421;-76
2022/05/15 08:35:01;;;;;;;14.50;8.90;;;;;;;25.47;42.81;101842.19;5006108;28;20034;-70
2022/05/15 08:37:26;;;;;;;22.42;9.90;;;;;;;25.69;40.65;101827.34;5007333;28;20052;-70
2022/05/15 08:39:53;;;;;;;16.88;9.18;;;;;;;25.83;40.83;101828.50;5011322;28;20034;-74
2022/05/15 08:42:29;;;;;;;17.40;8.20;;;;;;;25.94;39.25;101826.16;4996617;28;20034;-70
2022/05/15 08:44:58;;;;;;;18.33;9.50;;;;;;;26.02;38.82;101822.44;5002247;28;20481;-67
2022/05/15 08:47:33;;;;;;;19.50;9.10;;;;;;;26.39;39.62;101806.66;5004642;28;20029;-73
2022/05/15 08:50:04;;;;;;;16.08;9.00;;;;;;;26.45;37.28;101817.13;5011866;28;20036;-76
2022/05/15 08:52:52;;;;;;;22.48;7.60;;;;;;;26.51;39.47;101816.34;5008878;28;20030;-76
2022/05/15 08:55:47;;;;;;;17.42;8.20;;;;;;;26.11;39.91;101807.34;5011771;28;20077;-69
2022/05/15 08:58:24;;;;;;;16.58;6.85;;;;;;;26.56;39.99;101805.47;5011606;28;20054;-75
2022/05/15 09:00:51;;;;;;;14.88;7.35;;;;;;;26.96;39.01;101808.78;5002256;28;20037;-68
2022/05/15 09:03:21;;;;;;;12.77;7.63;;;;;;;27.27;38.21;101810.47;5006436;28;20053;-77
2022/05/15 09:06:02;;;;;;;21.10;7.20;;;;;;;27.17;36.51;101811.66;5014682;28;20438;-75
2022/05/15 09:09:00;;;;;;;15.32;7.22;;;;;;;27.03;36.85;101797.69;5012602;28;20056;-67
2022/05/15 09:11:55;;;;;;;18.02;7.82;;;;;;;26.76;34.50;101805.72;5003853;28;20037;-69
2022/05/15 09:14:38;;;;;;;21.58;7.05;;;;;;;27.05;36.95;101804.81;5002317;28;20046;-73
2022/05/15 09:17:24;;;;;;;17.55;6.90;;;;;;;27.14;34.39;101809.28;4994552;28;20410;-68
2022/05/15 09:19:55;;;;;;;12.85;6.75;;;;;;;27.38;33.67;101816.41;4996368;28;20077;-73
2022/05/15 09:22:22;;;;;;;22.40;6.25;;;;;;;27.43;33.02;101808.28;5008678;28;20393;-75
2022/05/15 09:24:51;;;;;;;17.73;7.43;;;;;;;27.55;34.74;101808.63;5004015;28;20087;-68
2022/05/15 09:27:23;;;;;;;17.98;7.68;;;;;;;27.33;32.39;101807.75;4991298;28;20068;-77
2022/05/15 09:29:59;;;;;;;19.98;6.47;;;;;;;27.48;34.20;101804.03;5008028;28;20033;-71
2022/05/15 09:32:43;;;;;;;17.50;5.95;;;;;;;27.58;32.32;101798.97;4999862;28;20097;-68
2022/05/15 09:35:38;;;;;;;11.85;5.32;;;;;;;27.51;33.04;101810.06;5007725;28;20036;-77
2022/05/15 09:43:40;;;;;;;11.00;4.75;;;;;;;27.85;32.99;101791.75;5002965;28;20054;-68
2022/05/15 09:46:21;;;;;;;15.23;4.78;;;;;;;27.93;30.06;101795.25;4993109;28;20034;-77
2022/05/15 09:49:07;;;;;;;13.05;4.97;;;;;;;27.88;32.71;101789.38;4999033;28;20038;-76
2022/05/15 09:51:54;;;;;;;10.63;4.03;;;;;;;28.05;30.03;101778.75;5011040;28;20033;-77
2022/05/15 09:54:34;;;;;;;31.60;4.68;;;;;;;28.47;31.76;101774.13;5003836;28;20037;-77
2022/05/15 09:57:12;;;;;;;10.80;4.10;;;;;;;28.30;27.84;101769.88;5012011;28;20041;-68
2022/05/15 09:59:37;;;;;;;14.73;4.35;;;;;;;28.18;27.48;101772.41;5007017;28;20493;-68
2022/05/15 10:02:03;;;;;;;14.88;3.90;;;;;;;28.33;29.38;101761.94;4995238;28;20041;-68
2022/05/15 10:04:31;;;;;;;13.15;4.55;;;;;;;28.30;27.57;101779.13;5011089;28;20033;-68
2022/05/15 10:07:02;;;;;;;11.50;4.28;;;;;;;28.30;27.71;101776.34;5011952;28;20453;-76
2022/05/15 10:09:34;;;;;;;9.35;3.88;;;;;;;28.25;26.69;101792.88;5010861;28;20069;-76
2022/05/15 10:12:27;;;;;;;9.30;4.03;;;;;;;28.37;28.55;101779.22;5008742;28;20121;-69
2022/05/15 10:14:59;;;;;;;12.68;4.03;;;;;;;28.14;27.87;101783.13;5010848;28;20113;-68
2022/05/15 10:17:26;;;;;;;12.02;4.43;;;;;;;28.04;27.64;101774.25;5001611;28;20604;-77
2022/05/15 10:20:00;;;;;;;12.85;4.95;;;;;;;28.22;28.11;101771.78;5003760;28;20041;-67
2022/05/15 10:22:53;;;;;;;11.30;4.03;;;;;;;28.27;27.83;101764.72;5009119;28;20030;-76
2022/05/15 10:25:25;;;;;;;11.55;4.30;;;;;;;27.97;26.32;101759.31;5006485;28;20509;-76
2022/05/15 10:28:33;;;;;;;10.18;4.15;;;;;;;28.12;30.21;101753.63;4999465;28;20050;-75
2022/05/15 10:31:17;;;;;;;12.63;4.82;;;;;;;28.32;27.91;101753.75;5001508;28;20519;-68
2022/05/15 10:33:46;;;;;;;10.13;4.18;;;;;;;28.58;26.87;101759.50;5005544;28;20125;-76
2022/05/15 10:36:25;;;;;;;12.57;3.58;;;;;;;28.89;28.50;101760.94;5011687;28;20080;-74
2022/05/15 10:39:01;;;;;;;12.00;4.07;;;;;;;29.00;25.40;101757.56;5001316;28;20037;-68
2022/05/15 10:41:55;;;;;;;10.40;4.05;;;;;;;29.01;27.86;101745.31;4993577;28;20782;-74
2022/05/15 10:44:34;;;;;;;13.75;4.05;;;;;;;29.17;26.54;101747.69;5008246;28;20026;-76
2022/05/15 10:47:10;;;;;;;11.77;4.85;;;;;;;28.82;24.47;101748.84;4999972;28;20030;-75
2022/05/15 10:50:12;;;;;;;15.57;4.80;;;;;;;28.59;27.47;101735.22;5005994;28;20452;-77
2022/05/15 10:53:00;;;;;;;12.20;3.90;;;;;;;28.91;28.98;101733.56;5006310;28;20156;-76
2022/05/15 10:58:47;;;;;;;11.27;4.15;;;;;;;29.51;28.26;101739.34;5008398;28;20164;-75
2022/05/15 11:01:29;;;;;;;10.70;4.43;;;;;;;29.55;25.03;101735.06;5007954;28;20113;-71
2022/05/15 11:04:06;;;;;;;12.55;3.95;;;;;;;29.80;27.52;101741.75;4997622;28;20042;-67
2022/05/15 11:06:43;;;;;;;8.10;3.53;;;;;;;29.80;24.85;101738.97;5006496;28;20085;-67
2022/05/15 11:09:20;;;;;;;8.18;3.80;;;;;;;29.53;23.61;101732.44;4998774;28;20038;-67
2022/05/15 11:12:00;;;;;;;18.08;5.05;;;;;;;29.51;25.85;101740.19;5008286;28;20036;-68
2022/05/15 11:14:34;;;;;;;11.60;4.28;;;;;;;29.40;23.88;101738.91;5010976;28;20497;-77
2022/05/15 11:17:07;;;;;;;16.00;4.43;;;;;;;29.42;24.51;101728.31;5005078;28;20088;-69
2022/05/15 11:19:40;;;;;;;10.32;3.58;;;;;;;29.38;24.38;101729.84;5002780;28;20184;-75
2022/05/15 11:22:20;;;;;;;9.10;3.40;;;;;;;29.47;24.29;101727.69;5010126;28;20516;-68
2022/05/15 11:25:11;;;;;;;10.25;4.10;;;;;;;29.87;24.55;101724.91;5010693;28;20037;-74
2022/05/15 11:28:02;;;;;;;12.65;3.90;;;;;;;30.12;25.63;101720.31;5005118;28;20486;-67
2022/05/15 11:30:35;;;;;;;8.00;3.38;;;;;;;30.15;22.78;101711.50;5004690;28;20038;-73
2022/05/15 11:33:17;;;;;;;12.40;3.60;;;;;;;30.08;24.29;101706.94;4990805;28;20081;-75
2022/05/15 11:36:08;;;;;;;8.43;3.38;;;;;;;29.96;23.56;101695.53;5003329;28;20680;-77
2022/05/15 11:38:48;;;;;;;9.95;3.38;;;;;;;30.18;24.56;101693.38;4990009;28;20105;-67
2022/05/15 11:41:35;;;;;;;6.45;3.30;;;;;;;30.09;24.12;101689.03;5022706;28;20038;-70
2022/05/15 11:44:05;;;;;;;7.78;2.95;;;;;;;29.70;22.40;101683.28;5017732;28;20041;-76
2022/05/15 11:46:45;;;;;;;9.35;2.88;;;;;;;29.92;24.38;101689.50;4990794;28;20032;-68
2022/05/15 11:49:36;;;;;;;9.32;3.10;;;;;;;29.94;25.35;101678.06;4980565;28;20049;-74
2022/05/15 11:52:12;;;;;;;6.60;3.57;;;;;;;29.91;23.20;101682.16;4996997;28;20033;-76